Time;durP1;ratioP1;P1;durP2;ratioP2;P2;SDS_P1;SDS_P2;PMS_P1;PMS_P2;Temp;Humidity;BMP_temperature;BMP_pressure;BME280_temperature;BME280_humidity;BME280_pressure;Samples;Min_cycle;Max_cycle;Signal;HPM_P1;HPM_P2
2021/12/28 00:01:16;;;;;;;31.10;6.77;;;11.20;99.90;;;;;;5055518;28;20169;-71
2021/12/28 00:03:43;;;;;;;29.93;6.23;;;11.30;99.90;;;;;;5055414;28;20213;-71
2021/12/28 00:06:10;;;;;;;35.87;6.10;;;11.30;99.90;;;;;;5055054;28;20215;-71
2021/12/28 00:08:36;;;;;;;31.73;6.10;;;11.40;99.90;;;;;;5055394;28;20260;-71
2021/12/28 00:11:04;;;;;;;35.20;6.37;;;11.40;99.90;;;;;;5055203;28;20244;-71
2021/12/28 00:13:30;;;;;;;27.90;6.53;;;11.40;99.90;;;;;;5055352;28;20173;-71
2021/12/28 00:18:23;;;;;;;30.77;6.23;;;11.40;99.90;;;;;;5054957;28;20177;-71
2021/12/28 00:20:52;;;;;;;29.53;6.20;;;11.40;99.90;;;;;;5054676;28;20177;-73
2021/12/28 00:23:25;;;;;;;30.53;6.43;;;11.40;99.90;;;;;;5054764;28;20314;-71
2021/12/28 00:25:52;;;;;;;26.73;6.17;;;11.50;99.90;;;;;;5055268;28;20173;-72
2021/12/28 00:28:19;;;;;;;35.73;6.53;;;11.50;99.90;;;;;;5055157;28;20303;-72
2021/12/28 00:30:47;;;;;;;36.40;6.60;;;11.50;99.90;;;;;;5054643;28;20187;-72
2021/12/28 00:33:13;;;;;;;24.63;6.17;;;11.50;99.90;;;;;;5054619;28;20192;-71
2021/12/28 00:35:41;;;;;;;29.60;4.80;;;11.50;99.90;;;;;;5054520;28;20235;-72
2021/12/28 00:38:10;;;;;;;21.93;5.73;;;11.50;99.90;;;;;;5054901;28;20180;-72
2021/12/28 00:40:37;;;;;;;35.93;6.03;;;11.50;99.90;;;;;;5055024;28;20178;-73
2021/12/28 00:43:04;;;;;;;29.57;5.83;;;11.50;99.90;;;;;;5054732;28;20209;-71
2021/12/28 00:45:30;;;;;;;26.90;5.90;;;11.50;99.90;;;;;;5054760;28;20537;-71
2021/12/28 00:47:57;;;;;;;34.33;6.33;;;11.50;99.90;;;;;;5054480;28;20617;-73
2021/12/28 00:50:24;;;;;;;25.17;5.50;;;11.40;99.90;;;;;;5054364;28;20679;-71
2021/12/28 00:52:50;;;;;;;32.27;6.10;;;11.50;99.90;;;;;;5054564;28;20640;-70
2021/12/28 00:55:17;;;;;;;35.07;6.27;;;11.50;99.90;;;;;;5054530;28;20181;-71
2021/12/28 00:57:44;;;;;;;28.90;5.57;;;11.50;99.90;;;;;;5054414;28;20243;-70
2021/12/28 01:00:14;;;;;;;28.27;5.87;;;11.60;99.90;;;;;;5054259;28;20173;-70
2021/12/28 01:02:40;;;;;;;28.30;6.27;;;11.50;99.90;;;;;;5053785;28;20168;-71
2021/12/28 01:05:08;;;;;;;29.83;6.13;;;11.50;99.90;;;;;;5054427;28;20181;-71
2021/12/28 01:07:34;;;;;;;22.87;5.70;;;11.50;99.90;;;;;;5053603;28;20173;-70
2021/12/28 01:10:00;;;;;;;24.73;6.07;;;11.40;99.90;;;;;;5054110;28;20755;-70
2021/12/28 01:12:26;;;;;;;29.63;6.40;;;11.40;99.90;;;;;;5054074;28;20528;-71
2021/12/28 01:14:52;;;;;;;22.53;5.47;;;11.40;99.90;;;;;;5052573;28;20172;-70
2021/12/28 01:17:17;;;;;;;23.60;5.47;;;11.30;99.90;;;;;;5053553;28;20256;-70
2021/12/28 01:19:43;;;;;;;22.33;5.40;;;11.40;99.90;;;;;;5053981;28;20176;-70
2021/12/28 01:22:09;;;;;;;22.80;6.00;;;11.30;99.90;;;;;;5053912;28;20177;-70
2021/12/28 01:24:35;;;;;;;29.27;6.07;;;11.30;99.90;;;;;;5053706;28;20290;-71
2021/12/28 01:27:00;;;;;;;30.77;6.03;;;11.30;99.90;;;;;;5054046;28;20215;-71
2021/12/28 01:29:27;;;;;;;27.17;5.07;;;11.30;99.90;;;;;;5053718;28;20200;-70
2021/12/28 01:31:53;;;;;;;29.77;5.93;;;11.30;99.90;;;;;;5053268;28;20651;-70
2021/12/28 01:34:19;;;;;;;29.43;5.60;;;11.30;99.90;;;;;;5053721;28;20173;-70
2021/12/28 01:36:45;;;;;;;22.57;5.30;;;11.30;99.90;;;;;;5053885;28;20176;-70
2021/12/28 01:39:11;;;;;;;26.83;5.17;;;11.30;99.90;;;;;;5053715;28;20177;-70
2021/12/28 01:41:36;;;;;;;22.70;5.20;;;11.40;99.90;;;;;;5053598;28;20176;-70
2021/12/28 01:44:07;;;;;;;27.13;5.63;;;11.40;99.90;;;;;;5053713;28;20300;-70
2021/12/28 01:46:34;;;;;;;24.27;4.33;;;11.40;99.90;;;;;;5053327;28;20177;-70
2021/12/28 01:49:00;;;;;;;20.23;4.60;;;11.40;99.90;;;;;;5053535;28;20181;-71
2021/12/28 01:51:27;;;;;;;19.90;4.60;;;11.40;99.90;;;;;;5053423;28;20177;-71
2021/12/28 01:53:56;;;;;;;20.47;4.90;;;11.30;99.90;;;;;;5053429;28;20175;-71
2021/12/28 01:56:37;;;;;;;17.10;4.60;;;11.30;99.90;;;;;;5053412;28;20332;-71
2021/12/28 01:59:04;;;;;;;16.47;4.00;;;11.30;99.90;;;;;;5053316;28;20237;-71
2021/12/28 02:01:30;;;;;;;19.70;4.07;;;11.20;99.90;;;;;;5052841;28;20636;-70
2021/12/28 02:03:56;;;;;;;16.47;3.57;;;11.10;99.90;;;;;;5053331;28;20217;-70
2021/12/28 02:06:25;;;;;;;18.20;4.17;;;11.20;99.90;;;;;;5053205;28;20636;-71
2021/12/28 02:08:52;;;;;;;15.60;4.30;;;11.10;99.90;;;;;;5053369;28;20176;-70
2021/12/28 02:11:18;;;;;;;15.37;4.20;;;11.10;99.90;;;;;;5052929;28;20612;-69
2021/12/28 02:13:44;;;;;;;16.60;3.67;;;11.10;99.90;;;;;;5052992;28;20173;-71
2021/12/28 02:16:09;;;;;;;19.00;3.93;;;11.10;99.90;;;;;;5052849;28;20248;-70
2021/12/28 02:18:36;;;;;;;13.57;4.17;;;11.10;99.90;;;;;;5052985;28;20724;-71
2021/12/28 02:21:05;;;;;;;12.43;3.13;;;11.00;99.90;;;;;;5053000;28;20176;-71
2021/12/28 02:23:31;;;;;;;17.10;3.40;;;11.00;99.90;;;;;;5052741;28;20228;-70
2021/12/28 02:25:57;;;;;;;15.20;4.00;;;11.00;99.90;;;;;;5052937;28;20249;-70
2021/12/28 02:28:23;;;;;;;14.50;3.03;;;11.00;99.90;;;;;;5052999;28;20545;-70
2021/12/28 02:30:54;;;;;;;13.97;3.37;;;11.10;99.90;;;;;;5052637;28;20177;-70
2021/12/28 02:33:23;;;;;;;18.20;3.77;;;11.10;99.90;;;;;;5053113;28;20165;-71
2021/12/28 02:35:49;;;;;;;8.03;3.00;;;11.10;99.90;;;;;;5053116;28;20184;-71
2021/12/28 02:38:15;;;;;;;11.73;3.23;;;11.10;99.90;;;;;;5052874;28;20169;-70
2021/12/28 02:40:43;;;;;;;14.33;3.30;;;11.10;99.90;;;;;;5052979;28;20234;-71
2021/12/28 02:43:11;;;;;;;10.60;3.03;;;11.10;99.90;;;;;;5052683;28;20227;-70
2021/12/28 02:45:50;;;;;;;12.17;3.30;;;11.20;99.90;;;;;;5052404;28;20181;-70
2021/12/28 02:48:16;;;;;;;13.57;3.53;;;11.20;99.90;;;;;;5051700;28;20181;-71
2021/12/28 02:50:48;;;;;;;9.03;3.10;;;11.20;99.90;;;;;;5052632;28;20169;-70
2021/12/28 02:53:15;;;;;;;11.33;2.30;;;11.30;99.90;;;;;;5052954;28;20192;-71
2021/12/28 02:55:42;;;;;;;12.97;3.20;;;11.20;99.90;;;;;;5052496;28;20212;-70
2021/12/28 02:58:22;;;;;;;12.30;2.67;;;11.20;99.90;;;;;;5051284;28;20270;-71
2021/12/28 03:00:52;;;;;;;13.17;3.60;;;11.20;99.90;;;;;;5052312;28;20259;-71
2021/12/28 03:03:22;;;;;;;9.97;3.13;;;11.30;99.90;;;;;;5052343;28;20209;-70
2021/12/28 03:05:51;;;;;;;9.43;3.20;;;11.30;99.90;;;;;;5052978;28;20216;-70
2021/12/28 03:08:18;;;;;;;14.63;3.20;;;11.30;99.90;;;;;;5052703;28;20304;-69
2021/12/28 03:10:45;;;;;;;10.30;3.00;;;11.40;99.90;;;;;;5052368;28;20180;-70
2021/12/28 03:13:18;;;;;;;7.33;2.67;;;11.40;99.90;;;;;;5052079;28;20173;-70
2021/12/28 03:15:44;;;;;;;8.93;2.60;;;11.40;99.90;;;;;;5052385;28;20176;-71
2021/12/28 03:18:09;;;;;;;9.03;2.70;;;11.40;99.90;;;;;;5052529;28;20200;-71
2021/12/28 03:20:36;;;;;;;11.43;2.83;;;11.30;99.90;;;;;;5052642;28;20184;-70
2021/12/28 03:23:02;;;;;;;9.27;2.70;;;11.30;99.90;;;;;;5052217;28;20227;-70
2021/12/28 03:25:28;;;;;;;8.67;2.40;;;11.30;99.90;;;;;;5052398;28;20170;-71
2021/12/28 03:27:53;;;;;;;9.37;2.60;;;11.30;99.90;;;;;;5051893;28;20659;-70
2021/12/28 03:30:19;;;;;;;9.23;2.57;;;11.30;99.90;;;;;;5052629;28;20173;-70
2021/12/28 03:32:45;;;;;;;8.47;2.77;;;11.30;99.90;;;;;;5056064;28;20639;-70
2021/12/28 03:35:13;;;;;;;7.63;2.70;;;11.40;99.90;;;;;;5056235;28;20174;-70
2021/12/28 03:37:39;;;;;;;6.97;2.20;;;11.40;99.90;;;;;;5056534;28;20192;-70
2021/12/28 03:40:07;;;;;;;7.57;2.73;;;11.40;99.90;;;;;;5055628;28;20671;-70
2021/12/28 03:42:33;;;;;;;9.13;2.40;;;11.40;99.90;;;;;;5055428;28;20195;-70
2021/12/28 03:44:59;;;;;;;9.83;2.80;;;11.40;99.90;;;;;;5055698;28;20216;-70
2021/12/28 03:47:25;;;;;;;7.87;2.10;;;11.50;99.90;;;;;;5055825;28;20178;-70
2021/12/28 03:49:50;;;;;;;7.33;2.77;;;11.50;99.90;;;;;;5055721;28;20200;-70
2021/12/28 03:52:16;;;;;;;4.73;2.07;;;11.60;99.90;;;;;;5055836;28;20631;-70
2021/12/28 03:54:41;;;;;;;4.10;1.80;;;11.60;99.90;;;;;;5055438;28;20319;-70
2021/12/28 03:57:07;;;;;;;8.43;1.93;;;11.60;99.90;;;;;;5055353;28;20200;-70
2021/12/28 03:59:33;;;;;;;6.13;2.10;;;11.50;99.90;;;;;;5055894;28;20181;-70
2021/12/28 04:01:59;;;;;;;8.20;1.93;;;11.60;99.90;;;;;;5055657;28;20675;-70
2021/12/28 04:04:25;;;;;;;7.53;1.80;;;11.60;99.90;;;;;;5055408;28;20208;-70
2021/12/28 04:06:50;;;;;;;6.17;1.90;;;11.50;99.90;;;;;;5055796;28;20165;-70
2021/12/28 04:09:45;;;;;;;6.37;2.00;;;11.60;99.90;;;;;;5055362;28;20264;-70
2021/12/28 04:12:02;;;;;;;6.10;1.80;;;11.60;99.90;;;;;;5054627;28;20173;-70
2021/12/28 04:14:28;;;;;;;5.73;1.80;;;11.60;99.90;;;;;;5055344;28;20176;-70
2021/12/28 04:16:53;;;;;;;6.57;2.00;;;11.60;99.90;;;;;;5055336;28;20211;-70
2021/12/28 04:19:19;;;;;;;4.07;1.87;;;11.60;99.90;;;;;;5055055;28;20252;-70
2021/12/28 04:21:44;;;;;;;4.33;1.70;;;11.70;99.90;;;;;;5054874;28;20583;-70
2021/12/28 04:24:10;;;;;;;6.13;2.00;;;11.70;99.90;;;;;;5054580;28;20240;-71
2021/12/28 04:26:36;;;;;;;6.33;1.73;;;11.70;99.90;;;;;;5054690;28;20251;-70
2021/12/28 04:29:01;;;;;;;6.30;1.90;;;11.70;99.90;;;;;;5054762;28;20619;-70
2021/12/28 04:31:28;;;;;;;4.53;1.83;;;11.70;99.90;;;;;;5054737;28;20230;-70
2021/12/28 04:33:53;;;;;;;5.40;1.80;;;11.60;99.90;;;;;;5054952;28;20177;-70
2021/12/28 04:36:20;;;;;;;5.53;1.90;;;11.60;99.90;;;;;;5054909;28;20252;-70
2021/12/28 04:38:46;;;;;;;3.57;2.07;;;11.60;99.90;;;;;;5054679;28;20174;-70
2021/12/28 04:41:12;;;;;;;3.93;1.83;;;11.60;99.90;;;;;;5053957;28;20200;-70
2021/12/28 04:43:38;;;;;;;6.77;1.80;;;11.50;99.90;;;;;;5054648;28;20197;-71
2021/12/28 04:46:05;;;;;;;4.87;1.90;;;11.40;99.90;;;;;;5054874;28;20512;-70
2021/12/28 04:48:32;;;;;;;3.80;1.90;;;11.40;99.90;;;;;;5054383;28;20201;-70
2021/12/28 04:50:57;;;;;;;7.30;2.00;;;11.40;99.90;;;;;;5054348;28;20169;-70
2021/12/28 04:53:23;;;;;;;9.07;1.90;;;11.40;99.90;;;;;;5053844;28;20172;-70
2021/12/28 04:55:50;;;;;;;3.87;1.77;;;11.40;99.90;;;;;;5053501;28;20197;-71
2021/12/28 04:58:16;;;;;;;4.37;2.00;;;11.40;99.90;;;;;;5054334;28;20203;-71
2021/12/28 05:00:44;;;;;;;4.57;2.10;;;11.40;99.90;;;;;;5054383;28;20589;-70
2021/12/28 05:03:10;;;;;;;3.33;2.00;;;11.40;99.90;;;;;;5053997;28;20259;-69
2021/12/28 05:05:43;;;;;;;5.17;2.30;;;11.40;99.90;;;;;;5054285;28;20172;-70
2021/12/28 05:08:10;;;;;;;4.43;2.03;;;11.40;99.90;;;;;;5053794;28;20177;-70
2021/12/28 05:10:36;;;;;;;5.60;2.27;;;11.40;99.90;;;;;;5053351;28;20185;-70
2021/12/28 05:13:02;;;;;;;5.00;2.23;;;11.30;99.90;;;;;;5054081;28;20303;-70
2021/12/28 05:15:28;;;;;;;3.00;2.03;;;11.30;99.90;;;;;;5053983;28;20161;-71
2021/12/28 05:17:54;;;;;;;7.23;2.20;;;11.30;99.90;;;;;;5053788;28;20180;-71
2021/12/28 05:20:19;;;;;;;5.10;2.30;;;11.30;99.90;;;;;;5053704;28;20659;-71
2021/12/28 05:22:45;;;;;;;4.53;2.23;;;11.40;99.90;;;;;;5053061;28;20209;-71
2021/12/28 05:25:11;;;;;;;3.70;2.63;;;11.40;99.90;;;;;;5053223;28;20205;-70
2021/12/28 05:27:36;;;;;;;5.63;2.60;;;11.40;99.90;;;;;;5053680;28;20173;-70
2021/12/28 05:30:05;;;;;;;5.20;2.47;;;11.30;99.90;;;;;;5053529;28;20663;-69
2021/12/28 05:32:31;;;;;;;5.93;2.93;;;11.30;99.90;;;;;;5053198;28;20258;-70
2021/12/28 05:34:56;;;;;;;7.07;3.17;;;11.20;99.90;;;;;;5053606;28;20205;-70
2021/12/28 05:37:22;;;;;;;8.00;2.77;;;11.20;99.90;;;;;;5053340;28;20208;-70
2021/12/28 05:39:48;;;;;;;6.63;2.80;;;11.20;99.90;;;;;;5052993;28;20265;-70
2021/12/28 05:42:13;;;;;;;4.87;2.60;;;11.20;99.90;;;;;;5052912;28;20334;-70
2021/12/28 05:44:39;;;;;;;4.50;2.53;;;11.20;99.90;;;;;;5053007;28;20209;-70
2021/12/28 05:47:05;;;;;;;5.37;2.93;;;11.30;99.90;;;;;;5053391;28;20172;-69
2021/12/28 05:49:31;;;;;;;5.17;2.50;;;11.30;99.90;;;;;;5052980;28;20173;-70
2021/12/28 05:51:56;;;;;;;5.47;3.00;;;11.30;99.90;;;;;;5052865;28;20176;-69
2021/12/28 05:54:22;;;;;;;5.37;3.17;;;11.20;99.90;;;;;;5051856;28;20716;-69
2021/12/28 05:56:48;;;;;;;6.80;3.30;;;11.20;99.90;;;;;;5053428;28;20193;-70
2021/12/28 05:59:13;;;;;;;4.40;3.00;;;11.20;99.90;;;;;;5053163;28;20185;-71
2021/12/28 06:01:39;;;;;;;6.83;3.17;;;11.10;99.90;;;;;;5052797;28;20635;-71
2021/12/28 06:04:05;;;;;;;7.37;3.43;;;11.20;99.90;;;;;;5052844;28;20208;-70
2021/12/28 06:06:31;;;;;;;4.57;3.40;;;11.10;99.90;;;;;;5052961;28;20176;-72
2021/12/28 06:08:57;;;;;;;7.00;3.27;;;11.20;99.90;;;;;;5052163;28;20188;-71
2021/12/28 06:11:22;;;;;;;4.07;3.17;;;11.10;99.90;;;;;;5052567;28;20174;-71
2021/12/28 06:13:48;;;;;;;4.20;2.57;;;11.20;99.90;;;;;;5052919;28;20172;-70
2021/12/28 06:16:17;;;;;;;5.47;2.93;;;11.30;99.90;;;;;;5052564;28;20173;-70
2021/12/28 06:18:42;;;;;;;4.87;2.87;;;11.30;99.90;;;;;;5052329;28;20239;-71
2021/12/28 06:21:08;;;;;;;3.17;2.87;;;11.30;99.90;;;;;;5052248;28;20637;-70
2021/12/28 06:23:35;;;;;;;3.57;2.80;;;11.30;99.90;;;;;;5052000;28;20235;-71
2021/12/28 06:26:00;;;;;;;2.87;2.67;;;11.30;99.90;;;;;;5052433;28;20256;-71
2021/12/28 06:28:26;;;;;;;4.83;2.83;;;11.30;99.90;;;;;;5052411;28;20211;-70
2021/12/28 06:30:53;;;;;;;4.43;2.80;;;11.30;99.90;;;;;;5052380;28;20165;-70
2021/12/28 06:33:20;;;;;;;2.70;2.50;;;11.30;99.90;;;;;;5052318;28;20165;-70
2021/12/28 06:35:46;;;;;;;2.50;2.30;;;11.30;99.90;;;;;;5052518;28;20203;-70
2021/12/28 06:38:11;;;;;;;3.37;2.50;;;11.20;99.90;;;;;;5052256;28;20162;-70
2021/12/28 06:40:37;;;;;;;2.83;2.50;;;11.20;99.90;;;;;;5052087;28;20274;-70
2021/12/28 06:43:03;;;;;;;2.90;2.53;;;11.10;99.90;;;;;;5051921;28;20169;-70
2021/12/28 06:45:28;;;;;;;5.50;3.17;;;11.20;99.90;;;;;;5052618;28;20190;-71
2021/12/28 06:47:54;;;;;;;5.30;2.90;;;11.20;99.90;;;;;;5052204;28;20274;-70
2021/12/28 06:50:20;;;;;;;3.23;2.93;;;11.10;99.90;;;;;;5051975;28;20227;-70
2021/12/28 06:52:45;;;;;;;3.47;2.70;;;11.20;99.90;;;;;;5050373;28;20575;-70
2021/12/28 06:55:11;;;;;;;3.40;3.10;;;11.20;99.90;;;;;;5052099;28;20169;-71
2021/12/28 06:57:38;;;;;;;4.73;3.10;;;11.20;99.90;;;;;;5052174;28;20200;-70
2021/12/28 07:00:13;;;;;;;3.77;3.33;;;11.20;99.90;;;;;;5051744;28;20223;-70
2021/12/28 07:02:39;;;;;;;3.60;3.30;;;11.20;99.90;;;;;;5050595;28;20555;-71
2021/12/28 07:05:06;;;;;;;5.10;3.50;;;11.20;99.90;;;;;;5051378;28;20206;-71
2021/12/28 07:07:31;;;;;;;5.63;3.23;;;11.30;99.90;;;;;;5054443;28;20234;-70
2021/12/28 07:09:57;;;;;;;6.30;3.90;;;11.20;99.90;;;;;;5055818;28;20174;-70
2021/12/28 07:12:23;;;;;;;4.77;3.43;;;11.20;99.90;;;;;;5055775;28;20176;-70
2021/12/28 07:14:48;;;;;;;3.87;3.47;;;11.10;99.90;;;;;;5054371;28;20265;-70
2021/12/28 07:17:14;;;;;;;3.70;3.23;;;11.20;99.90;;;;;;5054153;28;20169;-70
2021/12/28 07:19:39;;;;;;;6.03;3.67;;;11.20;99.90;;;;;;5055418;28;20180;-70
2021/12/28 07:22:05;;;;;;;5.53;3.70;;;11.20;99.90;;;;;;5055963;28;20239;-71
2021/12/28 07:24:31;;;;;;;5.37;3.87;;;11.20;99.90;;;;;;5053974;28;20312;-71
2021/12/28 07:26:57;;;;;;;5.73;3.83;;;11.30;99.90;;;;;;5055990;28;20557;-71
2021/12/28 07:29:22;;;;;;;3.27;2.97;;;11.30;99.90;;;;;;5055781;28;20177;-71
2021/12/28 07:31:48;;;;;;;3.70;3.30;;;11.30;99.90;;;;;;5055447;28;20173;-71
2021/12/28 07:34:14;;;;;;;4.90;2.87;;;11.30;99.90;;;;;;5054555;28;20270;-72
2021/12/28 07:36:40;;;;;;;6.43;3.10;;;11.30;99.90;;;;;;5055711;28;20263;-71
2021/12/28 07:39:05;;;;;;;2.97;2.77;;;11.30;99.90;;;;;;5055393;28;20238;-70
2021/12/28 07:41:32;;;;;;;3.93;2.93;;;11.30;99.90;;;;;;5055251;28;20175;-71
2021/12/28 07:43:58;;;;;;;5.83;3.00;;;11.30;99.90;;;;;;5055577;28;20220;-71
2021/12/28 07:46:24;;;;;;;4.83;3.37;;;11.40;99.90;;;;;;5055227;28;20192;-70
2021/12/28 07:48:49;;;;;;;8.03;3.40;;;11.40;99.90;;;;;;5054283;28;20260;-71
2021/12/28 07:51:16;;;;;;;2.97;2.77;;;11.40;99.90;;;;;;5055236;28;20181;-70
2021/12/28 07:53:41;;;;;;;5.37;3.43;;;11.50;99.90;;;;;;5054605;28;20169;-71
2021/12/28 07:56:07;;;;;;;3.50;3.20;;;11.50;99.90;;;;;;5055448;28;20664;-69
2021/12/28 07:58:33;;;;;;;3.40;2.83;;;11.50;99.90;;;;;;5055273;28;20246;-71
2021/12/28 08:00:59;;;;;;;4.33;2.83;;;11.60;99.90;;;;;;5054488;28;20177;-71
2021/12/28 08:03:25;;;;;;;3.50;3.17;;;11.60;99.90;;;;;;5054242;28;20208;-70
2021/12/28 08:05:52;;;;;;;6.00;3.27;;;11.50;99.90;;;;;;5054817;28;20262;-71
2021/12/28 08:08:18;;;;;;;4.30;3.50;;;11.50;99.90;;;;;;5054979;28;20260;-71
2021/12/28 08:10:45;;;;;;;3.63;3.33;;;11.40;99.90;;;;;;5053497;28;20275;-70
2021/12/28 08:13:10;;;;;;;3.00;2.80;;;11.30;99.90;;;;;;5054499;28;20169;-71
2021/12/28 08:15:37;;;;;;;3.20;2.90;;;11.30;99.90;;;;;;5054834;28;20221;-71
2021/12/28 08:18:04;;;;;;;3.00;2.80;;;11.40;99.90;;;;;;5053006;28;20637;-70
2021/12/28 08:20:30;;;;;;;3.20;2.90;;;11.30;99.90;;;;;;5054509;28;20181;-70
2021/12/28 08:22:57;;;;;;;3.37;3.07;;;11.30;99.90;;;;;;5054213;28;20672;-70
2021/12/28 08:25:23;;;;;;;3.13;2.40;;;11.30;99.90;;;;;;5054855;28;20204;-72
2021/12/28 08:27:50;;;;;;;3.10;2.70;;;11.30;99.90;;;;;;5054864;28;20174;-71
2021/12/28 08:30:17;;;;;;;4.80;3.13;;;11.40;99.90;;;;;;5054422;28;20204;-70
2021/12/28 08:32:43;;;;;;;3.03;2.73;;;11.50;99.90;;;;;;5053633;28;20591;-71
2021/12/28 08:35:10;;;;;;;3.20;2.97;;;11.50;99.90;;;;;;5054240;28;20165;-70
2021/12/28 08:37:35;;;;;;;3.50;3.20;;;11.50;99.90;;;;;;5054683;28;20513;-70
2021/12/28 08:40:02;;;;;;;4.00;3.53;;;11.50;99.90;;;;;;5054464;28;20215;-70
2021/12/28 08:42:27;;;;;;;3.67;3.40;;;11.50;99.90;;;;;;5053836;28;20177;-71
2021/12/28 08:44:53;;;;;;;3.97;3.67;;;11.40;99.90;;;;;;5054050;28;20217;-70
2021/12/28 08:47:22;;;;;;;4.10;3.80;;;11.40;99.90;;;;;;5053246;28;20196;-70
2021/12/28 08:49:48;;;;;;;4.13;3.83;;;11.40;99.90;;;;;;5053381;28;20280;-71
2021/12/28 08:52:13;;;;;;;4.10;3.80;;;11.30;99.90;;;;;;5053721;28;20201;-70
2021/12/28 08:54:39;;;;;;;4.50;3.70;;;11.30;99.90;;;;;;5053735;28;20169;-71
2021/12/28 08:57:04;;;;;;;3.73;3.43;;;11.30;99.90;;;;;;5053792;28;20189;-72
2021/12/28 08:59:30;;;;;;;3.77;3.20;;;11.40;99.90;;;;;;5053943;28;20533;-70
2021/12/28 09:01:56;;;;;;;3.10;2.80;;;11.40;99.90;;;;;;5053136;28;20659;-71
2021/12/28 09:04:22;;;;;;;3.20;2.90;;;11.50;99.90;;;;;;5053541;28;20707;-71
2021/12/28 09:06:48;;;;;;;3.73;3.17;;;11.50;99.90;;;;;;5053885;28;20231;-71
2021/12/28 09:09:14;;;;;;;3.63;2.77;;;11.50;99.90;;;;;;5052676;28;20640;-71
2021/12/28 09:11:41;;;;;;;3.33;3.10;;;11.50;99.90;;;;;;5053114;28;20264;-71
2021/12/28 09:14:07;;;;;;;3.67;2.90;;;11.50;99.90;;;;;;5053591;28;20185;-72
2021/12/28 09:16:33;;;;;;;3.70;2.70;;;11.50;99.90;;;;;;5053497;28;20177;-71
2021/12/28 09:18:59;;;;;;;4.63;2.90;;;11.40;99.90;;;;;;5053454;28;20348;-71
2021/12/28 09:21:24;;;;;;;3.30;2.50;;;11.50;99.90;;;;;;5052896;28;20180;-71
2021/12/28 09:23:50;;;;;;;2.83;2.50;;;11.50;99.90;;;;;;5053456;28;20312;-71
2021/12/28 09:26:16;;;;;;;2.43;2.23;;;11.60;99.90;;;;;;5053553;28;20178;-71
2021/12/28 09:28:41;;;;;;;2.00;1.90;;;11.70;99.90;;;;;;5052574;28;20177;-71
2021/12/28 09:31:07;;;;;;;2.00;1.87;;;11.80;99.90;;;;;;5052853;28;20211;-71
2021/12/28 09:33:32;;;;;;;1.97;1.80;;;11.80;99.90;;;;;;5053290;28;20181;-71
2021/12/28 09:36:00;;;;;;;1.93;1.83;;;11.80;99.90;;;;;;5052258;28;20625;-71
2021/12/28 09:38:26;;;;;;;2.83;1.90;;;11.90;99.90;;;;;;5053191;28;20196;-72
2021/12/28 09:40:52;;;;;;;1.90;1.80;;;11.90;99.90;;;;;;5052509;28;20177;-72
2021/12/28 09:43:19;;;;;;;2.43;1.90;;;11.80;99.90;;;;;;5052885;28;20204;-71
2021/12/28 09:45:44;;;;;;;2.00;1.87;;;11.90;99.90;;;;;;5052726;28;20185;-70
2021/12/28 09:48:10;;;;;;;1.70;1.60;;;11.80;99.90;;;;;;5052692;28;20173;-71
2021/12/28 09:50:39;;;;;;;2.10;1.97;;;11.70;99.90;;;;;;5053050;28;20173;-71
2021/12/28 09:53:06;;;;;;;2.47;1.80;;;11.70;99.90;;;;;;5053117;28;20177;-71
2021/12/28 09:55:32;;;;;;;1.90;1.80;;;11.80;99.90;;;;;;5052698;28;20653;-71
2021/12/28 09:57:58;;;;;;;2.20;2.10;;;11.80;99.90;;;;;;5052478;28;20196;-71
2021/12/28 10:00:24;;;;;;;2.03;1.80;;;11.70;99.90;;;;;;5052315;28;20664;-72
2021/12/28 10:02:52;;;;;;;1.83;1.73;;;11.70;99.90;;;;;;5052713;28;20218;-71
2021/12/28 10:05:22;;;;;;;1.90;1.80;;;11.80;99.90;;;;;;5052647;28;20270;-71
2021/12/28 10:07:50;;;;;;;2.13;1.83;;;11.80;99.90;;;;;;5053245;28;20247;-72
2021/12/28 10:10:16;;;;;;;1.83;1.33;;;11.80;99.90;;;;;;5052522;28;20223;-72
2021/12/28 10:12:45;;;;;;;1.77;1.50;;;11.70;99.90;;;;;;5052803;28;20177;-72
2021/12/28 10:15:14;;;;;;;2.50;1.57;;;11.80;99.90;;;;;;5052290;28;20637;-71
2021/12/28 10:17:42;;;;;;;3.70;1.30;;;11.70;99.90;;;;;;5052296;28;20624;-72
2021/12/28 10:20:21;;;;;;;1.73;1.33;;;11.70;99.90;;;;;;5053132;28;20169;-72
2021/12/28 10:22:58;;;;;;;1.20;1.10;;;11.70;99.90;;;;;;5051721;28;20282;-71
2021/12/28 10:25:37;;;;;;;0.93;0.93;;;11.60;99.90;;;;;;5052256;28;20184;-71
2021/12/28 10:28:11;;;;;;;2.93;0.90;;;11.60;99.90;;;;;;5052229;28;20200;-72
2021/12/28 10:30:52;;;;;;;1.93;1.30;;;11.60;99.90;;;;;;5052364;28;20172;-71
2021/12/28 10:33:20;;;;;;;8.33;2.20;;;11.50;99.90;;;;;;5052360;28;20168;-71
2021/12/28 10:35:50;;;;;;;12.83;3.07;;;11.30;99.90;;;;;;5052241;28;20162;-71
2021/12/28 10:38:23;;;;;;;12.37;2.60;;;11.40;99.90;;;;;;5052481;28;20227;-71
2021/12/28 10:40:52;;;;;;;14.73;3.60;;;11.50;99.90;;;;;;5055117;28;20173;-70
2021/12/28 10:43:20;;;;;;;15.90;3.80;;;11.60;99.90;;;;;;5055871;28;20676;-72
2021/12/28 10:45:48;;;;;;;16.33;3.40;;;11.70;99.90;;;;;;5056502;28;20181;-72
2021/12/28 10:48:21;;;;;;;19.47;4.13;;;11.70;99.90;;;;;;5056201;28;20239;-71
2021/12/28 10:51:04;;;;;;;21.63;4.50;;;11.80;99.90;;;;;;5056059;28;20172;-70
2021/12/28 10:53:54;;;;;;;22.97;5.30;;;11.70;99.90;;;;;;5056414;28;20637;-72
2021/12/28 10:56:20;;;;;;;29.90;5.13;;;11.70;99.90;;;;;;5055266;28;20189;-70
2021/12/28 10:58:48;;;;;;;24.30;4.83;;;11.70;99.90;;;;;;5055832;28;20176;-71
2021/12/28 11:01:18;;;;;;;23.77;5.10;;;11.80;99.90;;;;;;5056443;28;20169;-70
2021/12/28 11:03:49;;;;;;;31.20;5.93;;;11.90;99.90;;;;;;5056144;28;20657;-71
2021/12/28 11:06:22;;;;;;;35.47;6.60;;;11.90;99.90;;;;;;5056397;28;20161;-70
2021/12/28 11:08:51;;;;;;;32.33;6.20;;;12.00;99.90;;;;;;5055737;28;20165;-70
2021/12/28 11:11:19;;;;;;;22.87;5.77;;;12.10;99.90;;;;;;5055360;28;20326;-71
2021/12/28 11:13:45;;;;;;;21.30;5.53;;;12.10;99.90;;;;;;5055985;28;20187;-72
2021/12/28 11:16:13;;;;;;;25.10;5.87;;;12.20;99.90;;;;;;5056074;28;20214;-72
2021/12/28 11:18:44;;;;;;;26.03;5.73;;;12.20;99.90;;;;;;5055624;28;20165;-72
2021/12/28 11:21:17;;;;;;;31.03;7.27;;;12.20;99.90;;;;;;5055566;28;20193;-71
2021/12/28 11:23:43;;;;;;;33.43;6.37;;;12.20;99.90;;;;;;5054796;28;20225;-71
2021/12/28 11:26:18;;;;;;;38.67;7.27;;;12.20;99.90;;;;;;5055485;28;20165;-72
2021/12/28 11:28:59;;;;;;;46.97;14.00;;;12.20;99.90;;;;;;5053940;28;20765;-71
2021/12/28 11:31:28;;;;;;;36.80;9.70;;;12.20;99.90;;;;;;5055434;28;20158;-73
2021/12/28 11:34:07;;;;;;;61.93;27.80;;;12.20;99.90;;;;;;5055611;28;20645;-71
2021/12/28 11:36:39;;;;;;;107.53;52.80;;;12.20;99.90;;;;;;5055461;28;20166;-71
2021/12/28 11:39:08;;;;;;;55.43;17.87;;;12.10;99.90;;;;;;5055242;28;20172;-71
2021/12/28 11:41:34;;;;;;;65.47;41.03;;;12.20;99.90;;;;;;5054793;28;20230;-72
2021/12/28 11:44:01;;;;;;;32.53;7.77;;;12.20;99.90;;;;;;5055557;28;20209;-72
2021/12/28 11:46:28;;;;;;;32.03;8.93;;;12.10;99.90;;;;;;5054542;28;20227;-72
2021/12/28 11:48:54;;;;;;;43.63;9.57;;;12.20;99.90;;;;;;5055106;28;20173;-71
2021/12/28 11:51:24;;;;;;;35.57;10.30;;;12.20;99.90;;;;;;5053839;28;20513;-71
2021/12/28 11:53:51;;;;;;;32.93;7.50;;;12.20;99.90;;;;;;5055023;28;20204;-70
2021/12/28 11:56:21;;;;;;;30.27;7.63;;;12.20;99.90;;;;;;5054904;28;20193;-70
2021/12/28 11:58:49;;;;;;;31.20;7.30;;;12.20;99.90;;;;;;5054298;28;20215;-71
2021/12/28 12:01:36;;;;;;;34.97;6.57;;;12.30;99.90;;;;;;5054880;28;20230;-70
2021/12/28 12:04:02;;;;;;;35.33;7.10;;;12.40;99.90;;;;;;5053815;28;20213;-71
2021/12/28 12:06:56;;;;;;;32.73;7.10;;;12.60;99.90;;;;;;5055625;28;20185;-70
2021/12/28 12:09:22;;;;;;;30.97;7.50;;;12.90;99.90;;;;;;5053966;28;20196;-71
2021/12/28 12:12:11;;;;;;;32.43;8.50;;;13.00;99.90;;;;;;5054146;28;20640;-72
2021/12/28 12:14:58;;;;;;;45.77;17.43;;;13.10;99.90;;;;;;5054843;28;20534;-71
2021/12/28 12:17:29;;;;;;;54.97;20.07;;;13.10;99.90;;;;;;5054553;28;20177;-71
2021/12/28 12:20:16;;;;;;;39.80;9.93;;;13.20;99.90;;;;;;5054203;28;20529;-70
2021/12/28 12:22:43;;;;;;;23.97;7.07;;;13.60;99.90;;;;;;5054368;28;20176;-72
2021/12/28 12:25:21;;;;;;;30.60;6.70;;;13.70;99.90;;;;;;5053895;28;20243;-71
2021/12/28 12:27:48;;;;;;;26.10;5.60;;;13.40;99.90;;;;;;5052742;28;20173;-72
2021/12/28 12:30:31;;;;;;;23.10;5.07;;;12.90;99.90;;;;;;5054365;28;20173;-71
2021/12/28 12:33:06;;;;;;;24.10;4.87;;;12.70;99.90;;;;;;5054197;28;20174;-72
2021/12/28 12:35:46;;;;;;;23.87;5.40;;;12.50;99.90;;;;;;5054715;28;20224;-71
2021/12/28 12:38:12;;;;;;;22.60;5.60;;;12.40;99.90;;;;;;5053813;28;20173;-71
2021/12/28 12:40:50;;;;;;;24.73;5.00;;;12.40;99.90;;;;;;5053795;28;20181;-72
2021/12/28 12:43:17;;;;;;;29.47;5.63;;;12.40;99.90;;;;;;5054281;28;20268;-71
2021/12/28 12:45:55;;;;;;;24.77;5.57;;;12.30;99.90;;;;;;5054279;28;20540;-71
2021/12/28 12:48:36;;;;;;;28.40;5.77;;;12.20;99.90;;;;;;5054018;28;20165;-70